EGPH/EDI METAR and TAF weather

Enter ICAO airport designator
Station Type Date Time Source
EGPH METAR 2018/01/16 09:20 UTC NOAA

EGPH 160920Z 23009KT 9999 5000S VCSH BKN004TCU BKN014 01/00 Q0983 RESHSN R24/690195


Station Type Date Time Source
EGPH Decoded METAR 2018/01/16 09:20 UTC NOAA

Edinburgh Airport, United Kingdom (EGPH) 55-57N 003-21W 0M
Jan 16, 2018 - 04:20 AM EST / 2018.01.16 0920 UTC
Wind: from the SW (230 degrees) at 10 MPH (9 KT):0
Visibility: greater than 7 mile(s):0
Sky conditions: mostly cloudy
Weather: showers in the vicinity; Towering cumulus clouds observed
Temperature: 33 F (1 C)
Windchill: 24 F (-4 C):1
Dew Point: 32 F (0 C)
Relative Humidity: 93%
Pressure (altimeter): 29.03 in. Hg (0983 hPa)
ob: EGPH 160920Z 23009KT 9999 5000S VCSH BKN004TCU BKN014 01/00 Q0983 RESHSN R24/690195
cycle: 9

Station Type Date Time Source
EGPH TAF 2018/01/16 08:57 UTC NOAA

TAF
AMD TAF
AMD EGPH 160855Z 1608/1706 23012KT 9999 SCT040
TEMPO 1608/1706 24017G27KT 1000 SHSN BKN003 BKN015CB


Example: see airport list